Time;durP1;ratioP1;P1;durP2;ratioP2;P2;SDS_P1;SDS_P2;PMS_P1;PMS_P2;Temp;Humidity;BMP_temperature;BMP_pressure;BME280_temperature;BME280_humidity;BME280_pressure;Samples;Min_cycle;Max_cycle;Signal;HPM_P1;HPM_P2
2022/11/06 00:02:13;;;;;;;0.30;0.30;;;;;;;;;;7387827;19;20482;-71
2022/11/06 00:04:38;;;;;;;0.23;0.23;;;;;;;;;;7389244;19;20123;-70
2022/11/06 00:07:03;;;;;;;0.50;0.50;;;;;;;;;;7389487;19;20113;-72
2022/11/06 00:09:28;;;;;;;0.53;0.50;;;;;;;;;;7387393;19;20188;-70
2022/11/06 00:11:54;;;;;;;1.37;0.60;;;;;;;;;;7387061;19;20587;-70
2022/11/06 00:14:19;;;;;;;0.40;0.40;;;;;;;;;;7388479;19;20165;-69
2022/11/06 00:16:46;;;;;;;0.30;0.30;;;;;;;;;;7384565;19;20603;-70
2022/11/06 00:19:11;;;;;;;0.60;0.60;;;;;;;;;;7386260;19;20821;-70
2022/11/06 00:21:37;;;;;;;0.20;0.20;;;;;;;;;;7386936;19;20109;-69
2022/11/06 00:24:05;;;;;;;0.33;0.33;;;;;;;;;;7387890;19;20125;-71
2022/11/06 00:26:31;;;;;;;0.30;0.30;;;;;;;;;;7384327;19;20125;-69
2022/11/06 00:28:57;;;;;;;0.53;0.53;;;;;;;;;;7386843;19;20113;-70
2022/11/06 00:31:24;;;;;;;0.30;0.30;;;;;;;;;;7386663;19;20105;-70
2022/11/06 00:33:50;;;;;;;0.30;0.30;;;;;;;;;;7388558;19;20110;-72
2022/11/06 00:36:18;;;;;;;0.40;0.40;;;;;;;;;;7386931;19;20195;-71
2022/11/06 00:38:43;;;;;;;0.30;0.30;;;;;;;;;;7385732;19;20197;-70
2022/11/06 00:41:14;;;;;;;0.87;0.87;;;;;;;;;;7385395;19;20583;-70
2022/11/06 00:43:40;;;;;;;0.30;0.30;;;;;;;;;;7386366;19;20759;-70
2022/11/06 00:46:13;;;;;;;0.37;0.33;;;;;;;;;;7384634;19;20867;-70
2022/11/06 00:48:39;;;;;;;0.70;0.70;;;;;;;;;;7386293;19;20419;-70
2022/11/06 00:51:09;;;;;;;0.30;0.30;;;;;;;;;;7387424;19;20121;-71
2022/11/06 00:53:35;;;;;;;0.40;0.40;;;;;;;;;;7387568;19;20570;-71
2022/11/06 00:56:12;;;;;;;0.40;0.40;;;;;;;;;;7385249;19;20541;-70
2022/11/06 00:58:38;;;;;;;0.37;0.37;;;;;;;;;;7387191;19;20619;-70
2022/11/06 01:01:09;;;;;;;0.30;0.30;;;;;;;;;;7384542;19;20121;-70
2022/11/06 01:03:35;;;;;;;0.50;0.50;;;;;;;;;;7386705;19;20129;-70
2022/11/06 01:06:14;;;;;;;3.40;0.60;;;;;;;;;;7385180;19;20162;-71
2022/11/06 01:08:40;;;;;;;0.60;0.60;;;;;;;;;;7388503;19;20113;-72
2022/11/06 01:11:07;;;;;;;0.97;0.97;;;;;;;;;;7384795;19;20731;-71
2022/11/06 01:13:33;;;;;;;0.40;0.40;;;;;;;;;;7385189;19;20120;-70
2022/11/06 01:15:58;;;;;;;0.53;0.53;;;;;;;;;;7386712;19;20121;-70
2022/11/06 01:18:23;;;;;;;0.40;0.40;;;;;;;;;;7386962;19;20128;-70
2022/11/06 01:20:49;;;;;;;0.30;0.30;;;;;;;;;;7385175;19;20133;-70
2022/11/06 01:23:14;;;;;;;0.30;0.30;;;;;;;;;;7387382;19;20572;-70
2022/11/06 01:25:39;;;;;;;0.20;0.20;;;;;;;;;;7384667;19;20163;-73
2022/11/06 01:28:07;;;;;;;0.30;0.30;;;;;;;;;;7385209;19;20113;-69
2022/11/06 01:30:36;;;;;;;0.30;0.30;;;;;;;;;;7386819;19;20173;-70
2022/11/06 01:33:01;;;;;;;0.30;0.30;;;;;;;;;;7387232;19;20584;-70
2022/11/06 01:35:26;;;;;;;0.30;0.30;;;;;;;;;;7386690;19;20121;-70
2022/11/06 01:37:51;;;;;;;0.30;0.30;;;;;;;;;;7384318;19;20614;-70
2022/11/06 01:40:17;;;;;;;1.23;0.93;;;;;;;;;;7385369;19;20402;-70
2022/11/06 01:42:42;;;;;;;0.43;0.43;;;;;;;;;;7381181;19;20124;-72
2022/11/06 01:45:24;;;;;;;0.80;0.80;;;;;;;;;;7379900;19;20120;-70
2022/11/06 01:47:49;;;;;;;0.57;0.57;;;;;;;;;;7378766;19;20445;-72
2022/11/06 01:50:15;;;;;;;1.07;0.97;;;;;;;;;;7376751;19;20964;-70
2022/11/06 01:52:41;;;;;;;0.20;0.20;;;;;;;;;;7376014;19;20105;-69
2022/11/06 01:55:23;;;;;;;0.20;0.20;;;;;;;;;;7377788;19;20117;-70
2022/11/06 01:57:49;;;;;;;0.63;0.63;;;;;;;;;;7380973;19;20601;-70
2022/11/06 02:00:15;;;;;;;0.40;0.40;;;;;;;;;;7378866;19;20113;-70
2022/11/06 02:02:40;;;;;;;1.07;0.70;;;;;;;;;;7379972;19;20116;-71
2022/11/06 02:05:06;;;;;;;0.40;0.40;;;;;;;;;;7384777;19;20136;-69
2022/11/06 02:07:32;;;;;;;0.20;0.20;;;;;;;;;;7382740;19;20123;-70
2022/11/06 02:09:57;;;;;;;0.57;0.57;;;;;;;;;;7378132;19;20518;-70
2022/11/06 02:12:35;;;;;;;0.43;0.43;;;;;;;;;;7375428;19;20124;-70
2022/11/06 02:15:14;;;;;;;0.50;0.50;;;;;;;;;;7381959;19;20121;-70
2022/11/06 02:17:48;;;;;;;0.30;0.30;;;;;;;;;;7381409;19;20101;-70
2022/11/06 02:21:01;;;;;;;0.63;0.63;;;;;;;;;;7376228;19;20568;-69
2022/11/06 02:23:49;;;;;;;0.30;0.30;;;;;;;;;;7376230;19;20192;-70
2022/11/06 02:26:45;;;;;;;0.50;0.50;;;;;;;;;;7377007;19;20137;-69
2022/11/06 02:29:25;;;;;;;0.47;0.47;;;;;;;;;;7379607;19;20188;-71
2022/11/06 02:31:53;;;;;;;0.83;0.83;;;;;;;;;;7377636;19;20567;-69
2022/11/06 02:34:20;;;;;;;0.30;0.30;;;;;;;;;;7380663;19;20113;-69
2022/11/06 02:36:50;;;;;;;0.43;0.43;;;;;;;;;;7377232;19;20157;-70
2022/11/06 02:39:18;;;;;;;0.40;0.40;;;;;;;;;;7379853;19;20105;-69
2022/11/06 02:41:45;;;;;;;0.50;0.50;;;;;;;;;;7378147;19;20540;-69
2022/11/06 02:44:17;;;;;;;0.33;0.33;;;;;;;;;;7377949;19;20121;-69
2022/11/06 02:46:54;;;;;;;0.47;0.47;;;;;;;;;;7375605;19;20607;-71
2022/11/06 02:49:26;;;;;;;0.50;0.50;;;;;;;;;;7384738;19;20168;-70
2022/11/06 02:51:56;;;;;;;0.20;0.20;;;;;;;;;;7380805;19;20109;-70
2022/11/06 02:54:22;;;;;;;0.50;0.50;;;;;;;;;;7384041;19;20138;-69
2022/11/06 02:56:50;;;;;;;0.20;0.20;;;;;;;;;;7379130;19;20132;-70
2022/11/06 02:59:24;;;;;;;0.30;0.30;;;;;;;;;;7382352;19;20133;-70
2022/11/06 03:02:06;;;;;;;0.33;0.33;;;;;;;;;;7381092;19;20490;-70
2022/11/06 03:04:40;;;;;;;0.30;0.30;;;;;;;;;;7383266;19;20149;-70
2022/11/06 03:07:11;;;;;;;0.30;0.30;;;;;;;;;;7383273;19;20192;-71
2022/11/06 03:09:36;;;;;;;0.20;0.20;;;;;;;;;;7382015;19;20108;-72
2022/11/06 03:12:31;;;;;;;0.30;0.30;;;;;;;;;;7383483;19;20105;-69
2022/11/06 03:15:25;;;;;;;0.40;0.40;;;;;;;;;;7380561;19;20172;-70
2022/11/06 03:18:13;;;;;;;0.30;0.30;;;;;;;;;;7382916;19;20105;-69
2022/11/06 03:20:42;;;;;;;0.40;0.40;;;;;;;;;;7380174;19;20105;-72
2022/11/06 03:23:26;;;;;;;0.30;0.30;;;;;;;;;;7384124;19;20114;-70
2022/11/06 03:26:33;;;;;;;0.87;0.50;;;;;;;;;;7381140;19;20177;-69
2022/11/06 03:29:07;;;;;;;0.30;0.30;;;;;;;;;;7383424;19;20589;-70
2022/11/06 03:31:37;;;;;;;0.30;0.30;;;;;;;;;;7380612;19;20125;-70
2022/11/06 03:34:07;;;;;;;0.93;0.93;;;;;;;;;;7383537;19;20125;-69
2022/11/06 03:36:40;;;;;;;0.30;0.30;;;;;;;;;;7381137;19;20125;-71
2022/11/06 03:39:09;;;;;;;0.63;0.63;;;;;;;;;;7390650;19;20105;-69
2022/11/06 03:41:40;;;;;;;0.50;0.50;;;;;;;;;;7386456;19;20526;-70
2022/11/06 03:44:08;;;;;;;0.30;0.30;;;;;;;;;;7390278;19;20108;-69
2022/11/06 03:46:37;;;;;;;0.30;0.30;;;;;;;;;;7386176;19;20125;-71
2022/11/06 03:49:10;;;;;;;0.50;0.50;;;;;;;;;;7384168;19;20117;-69
2022/11/06 03:51:39;;;;;;;0.60;0.60;;;;;;;;;;7385701;19;20113;-70
2022/11/06 03:54:09;;;;;;;0.23;0.23;;;;;;;;;;7386408;19;20120;-70
2022/11/06 03:56:42;;;;;;;0.20;0.20;;;;;;;;;;7383905;19;20201;-70
2022/11/06 03:59:09;;;;;;;0.33;0.33;;;;;;;;;;7385935;19;20564;-70
2022/11/06 04:01:37;;;;;;;1.50;0.87;;;;;;;;;;7389131;19;20109;-70
2022/11/06 04:04:10;;;;;;;0.30;0.30;;;;;;;;;;7388489;19;20121;-70
2022/11/06 04:06:42;;;;;;;0.40;0.40;;;;;;;;;;7387170;19;20575;-70
2022/11/06 04:14:41;;;;;;;0.30;0.30;;;;;;;;;;7389007;19;20145;-71
2022/11/06 04:17:09;;;;;;;0.30;0.30;;;;;;;;;;7387879;19;20173;-70
2022/11/06 04:19:34;;;;;;;0.53;0.53;;;;;;;;;;7386222;19;20121;-70
2022/11/06 04:22:06;;;;;;;0.40;0.40;;;;;;;;;;7389312;19;20094;-70
2022/11/06 04:27:48;;;;;;;0.30;0.30;;;;;;;;;;7389281;19;20129;-69
2022/11/06 04:30:15;;;;;;;0.30;0.30;;;;;;;;;;7389203;19;20113;-70
2022/11/06 04:32:50;;;;;;;0.33;0.33;;;;;;;;;;7386572;19;20583;-69
2022/11/06 04:35:33;;;;;;;0.20;0.20;;;;;;;;;;7386428;19;20220;-71
2022/11/06 04:38:22;;;;;;;0.60;0.60;;;;;;;;;;7387713;19;20614;-70
2022/11/06 04:40:57;;;;;;;0.40;0.40;;;;;;;;;;7387384;19;20109;-69
2022/11/06 04:43:48;;;;;;;0.43;0.43;;;;;;;;;;7390116;19;20108;-69
2022/11/06 04:46:54;;;;;;;0.20;0.20;;;;;;;;;;7385320;19;20165;-70
2022/11/06 04:49:20;;;;;;;0.73;0.73;;;;;;;;;;7388413;19;20148;-69
2022/11/06 04:51:46;;;;;;;0.30;0.30;;;;;;;;;;7386224;19;20121;-69
2022/11/06 04:54:11;;;;;;;0.30;0.30;;;;;;;;;;7388028;19;20177;-70
2022/11/06 04:56:37;;;;;;;3.90;1.10;;;;;;;;;;7385309;19;20152;-71
2022/11/06 04:59:06;;;;;;;0.40;0.40;;;;;;;;;;7385580;19;20105;-69
2022/11/06 05:01:31;;;;;;;0.20;0.20;;;;;;;;;;7386007;19;20591;-72
2022/11/06 05:03:57;;;;;;;0.30;0.30;;;;;;;;;;7385973;19;20113;-70
2022/11/06 05:06:22;;;;;;;0.73;0.73;;;;;;;;;;7386056;19;20129;-69
2022/11/06 05:08:47;;;;;;;0.20;0.20;;;;;;;;;;7387912;19;20124;-71
2022/11/06 05:11:13;;;;;;;0.30;0.30;;;;;;;;;;7385815;19;20098;-70
2022/11/06 05:13:38;;;;;;;0.30;0.30;;;;;;;;;;7380665;19;20488;-71
2022/11/06 05:16:04;;;;;;;0.40;0.40;;;;;;;;;;7382531;19;20117;-69
2022/11/06 05:18:29;;;;;;;0.40;0.40;;;;;;;;;;7385848;19;20128;-71
2022/11/06 05:23:45;;;;;;;0.30;0.30;;;;;;;;;;7386997;19;20116;-70
2022/11/06 05:26:10;;;;;;;0.40;0.40;;;;;;;;;;7383712;19;20117;-70
2022/11/06 05:28:36;;;;;;;0.33;0.33;;;;;;;;;;7385674;19;20169;-69
2022/11/06 05:31:01;;;;;;;0.20;0.20;;;;;;;;;;7384104;19;20117;-71
2022/11/06 05:33:26;;;;;;;0.90;0.90;;;;;;;;;;7386977;19;20109;-69
2022/11/06 05:35:52;;;;;;;0.43;0.43;;;;;;;;;;7382969;19;20557;-70
2022/11/06 05:38:18;;;;;;;0.30;0.30;;;;;;;;;;7385814;19;20189;-69
2022/11/06 05:40:43;;;;;;;0.47;0.47;;;;;;;;;;7385553;19;20120;-69
2022/11/06 05:43:08;;;;;;;1.37;1.27;;;;;;;;;;7386319;19;20583;-69
2022/11/06 05:45:34;;;;;;;0.70;0.70;;;;;;;;;;7385753;19;20161;-69
2022/11/06 05:47:59;;;;;;;0.40;0.40;;;;;;;;;;7383908;19;20101;-70
2022/11/06 05:50:24;;;;;;;1.17;1.03;;;;;;;;;;7386994;19;20108;-70
2022/11/06 05:52:50;;;;;;;0.43;0.43;;;;;;;;;;7383075;19;20201;-69
2022/11/06 05:55:15;;;;;;;1.00;1.00;;;;;;;;;;7384638;19;20113;-71
2022/11/06 05:57:41;;;;;;;0.90;0.90;;;;;;;;;;7384879;19;20105;-69
2022/11/06 06:00:07;;;;;;;0.50;0.43;;;;;;;;;;7382940;19;20994;-69
2022/11/06 06:02:32;;;;;;;0.30;0.30;;;;;;;;;;7384647;19;20117;-70
2022/11/06 06:04:57;;;;;;;0.30;0.30;;;;;;;;;;7378192;19;20156;-69
2022/11/06 06:07:23;;;;;;;0.60;0.60;;;;;;;;;;7378207;19;20104;-69
2022/11/06 06:09:48;;;;;;;0.63;0.63;;;;;;;;;;7385081;19;20133;-72
2022/11/06 06:12:14;;;;;;;0.20;0.20;;;;;;;;;;7381231;19;20105;-70
2022/11/06 06:14:39;;;;;;;0.30;0.30;;;;;;;;;;7384288;19;20109;-70
2022/11/06 06:17:04;;;;;;;0.30;0.30;;;;;;;;;;7385752;19;20161;-69
2022/11/06 06:19:30;;;;;;;0.50;0.50;;;;;;;;;;7381985;19;20108;-70
2022/11/06 06:21:55;;;;;;;0.20;0.20;;;;;;;;;;7381852;19;20158;-72
2022/11/06 06:24:20;;;;;;;0.40;0.40;;;;;;;;;;7388308;19;20634;-70
2022/11/06 06:26:45;;;;;;;0.50;0.50;;;;;;;;;;7383969;19;20126;-70
2022/11/06 06:29:11;;;;;;;0.60;0.60;;;;;;;;;;7388451;19;20133;-69
2022/11/06 06:31:36;;;;;;;0.73;0.73;;;;;;;;;;7386588;19;20478;-70
2022/11/06 06:34:01;;;;;;;0.20;0.20;;;;;;;;;;7387352;19;20125;-69
2022/11/06 06:36:27;;;;;;;0.67;0.67;;;;;;;;;;7386443;19;20531;-69
2022/11/06 06:38:53;;;;;;;0.37;0.37;;;;;;;;;;7387713;19;20150;-71
2022/11/06 06:41:18;;;;;;;0.40;0.40;;;;;;;;;;7385125;19;20588;-72
2022/11/06 06:43:47;;;;;;;0.20;0.20;;;;;;;;;;7387208;19;20120;-70
2022/11/06 06:46:12;;;;;;;0.30;0.30;;;;;;;;;;7384936;19;20118;-70
2022/11/06 06:48:37;;;;;;;0.97;0.97;;;;;;;;;;7387745;19;20101;-70
2022/11/06 06:51:03;;;;;;;0.30;0.30;;;;;;;;;;7385438;19;20127;-70
2022/11/06 06:53:29;;;;;;;0.30;0.30;;;;;;;;;;7385440;19;20112;-69
2022/11/06 06:55:57;;;;;;;1.60;1.07;;;;;;;;;;7383748;19;20117;-69
2022/11/06 06:58:22;;;;;;;0.40;0.40;;;;;;;;;;7382603;19;20101;-70
2022/11/06 07:00:48;;;;;;;0.40;0.40;;;;;;;;;;7384850;19;20453;-72
2022/11/06 07:03:13;;;;;;;0.50;0.50;;;;;;;;;;7383895;19;20141;-72
2022/11/06 07:05:39;;;;;;;0.67;0.67;;;;;;;;;;7383407;19;20153;-70
2022/11/06 07:08:04;;;;;;;0.60;0.60;;;;;;;;;;7383440;19;20188;-69
2022/11/06 07:10:30;;;;;;;0.20;0.20;;;;;;;;;;7386583;19;20101;-70
2022/11/06 07:12:56;;;;;;;0.40;0.40;;;;;;;;;;7392128;19;20225;-70
2022/11/06 07:15:21;;;;;;;0.73;0.73;;;;;;;;;;7390906;19;20149;-70
2022/11/06 07:17:47;;;;;;;0.83;0.83;;;;;;;;;;7390777;19;20442;-70
2022/11/06 07:20:13;;;;;;;0.30;0.30;;;;;;;;;;7388667;19;20105;-69
2022/11/06 07:22:38;;;;;;;0.50;0.50;;;;;;;;;;7390309;19;20113;-69
2022/11/06 07:25:04;;;;;;;0.60;0.60;;;;;;;;;;7390512;19;20184;-69
2022/11/06 07:27:30;;;;;;;0.27;0.27;;;;;;;;;;7391375;19;20128;-72
2022/11/06 07:29:55;;;;;;;0.40;0.40;;;;;;;;;;7391006;19;20105;-70
2022/11/06 07:32:20;;;;;;;0.30;0.30;;;;;;;;;;7391700;19;20161;-70
2022/11/06 07:34:46;;;;;;;1.50;0.50;;;;;;;;;;7384711;19;20116;-69
2022/11/06 07:37:11;;;;;;;0.20;0.20;;;;;;;;;;7389787;19;20120;-69
2022/11/06 07:39:36;;;;;;;0.30;0.30;;;;;;;;;;7381654;19;20106;-70
2022/11/06 07:42:02;;;;;;;0.40;0.40;;;;;;;;;;7390579;19;20109;-70
2022/11/06 07:44:27;;;;;;;0.50;0.50;;;;;;;;;;7389634;19;20113;-69
2022/11/06 07:46:52;;;;;;;0.30;0.30;;;;;;;;;;7391476;19;20124;-70
2022/11/06 07:49:17;;;;;;;0.40;0.40;;;;;;;;;;7393392;19;20117;-72
2022/11/06 07:51:43;;;;;;;0.77;0.60;;;;;;;;;;7383405;19;20608;-70
2022/11/06 07:54:10;;;;;;;1.33;1.27;;;;;;;;;;7390121;19;20131;-71
2022/11/06 07:56:35;;;;;;;0.50;0.50;;;;;;;;;;7386485;19;20121;-71
2022/11/06 07:59:00;;;;;;;0.30;0.30;;;;;;;;;;7386244;19;20117;-72
2022/11/06 08:01:25;;;;;;;0.60;0.60;;;;;;;;;;7377194;19;20916;-70
2022/11/06 08:03:51;;;;;;;0.30;0.30;;;;;;;;;;7381531;19;20207;-72
2022/11/06 08:06:16;;;;;;;0.57;0.57;;;;;;;;;;7369124;19;20128;-72
2022/11/06 08:08:41;;;;;;;2.07;1.03;;;;;;;;;;7373460;19;20121;-70
2022/11/06 08:11:09;;;;;;;1.30;1.20;;;;;;;;;;7360294;19;20577;-70
2022/11/06 08:13:35;;;;;;;0.70;0.70;;;;;;;;;;7369779;19;20106;-70
2022/11/06 08:16:08;;;;;;;0.30;0.30;;;;;;;;;;7374449;19;20162;-70
2022/11/06 08:18:34;;;;;;;0.33;0.33;;;;;;;;;;7378622;19;20176;-71
2022/11/06 08:21:00;;;;;;;1.07;1.07;;;;;;;;;;7382668;19;20867;-72
2022/11/06 08:23:25;;;;;;;1.30;0.70;;;;;;;;;;7375394;19;20169;-70
2022/11/06 08:25:55;;;;;;;0.30;0.30;;;;;;;;;;7372441;19;20120;-70
2022/11/06 08:28:21;;;;;;;0.57;0.57;;;;;;;;;;7372642;19;20123;-72
2022/11/06 08:30:46;;;;;;;0.40;0.40;;;;;;;;;;7369475;19;21122;-70
2022/11/06 08:33:11;;;;;;;0.40;0.40;;;;;;;;;;7369960;19;20128;-70
2022/11/06 08:35:37;;;;;;;0.30;0.30;;;;;;;;;;7379917;19;20177;-70
2022/11/06 08:38:02;;;;;;;1.13;0.60;;;;;;;;;;7389188;19;20796;-69
2022/11/06 08:40:28;;;;;;;0.83;0.60;;;;;;;;;;7386156;19;20564;-71
2022/11/06 08:43:01;;;;;;;0.30;0.30;;;;;;;;;;7373735;19;20117;-70
2022/11/06 08:45:26;;;;;;;0.40;0.40;;;;;;;;;;7368042;19;20157;-70
2022/11/06 08:47:52;;;;;;;2.33;0.73;;;;;;;;;;7377045;19;20112;-71
2022/11/06 08:50:17;;;;;;;0.57;0.57;;;;;;;;;;7371570;19;20695;-70
2022/11/06 08:52:42;;;;;;;0.30;0.30;;;;;;;;;;7381479;19;20605;-70
2022/11/06 08:55:08;;;;;;;0.30;0.30;;;;;;;;;;7373742;19;20181;-70
2022/11/06 08:57:33;;;;;;;0.73;0.73;;;;;;;;;;7376210;19;20128;-70
2022/11/06 08:59:58;;;;;;;1.37;1.30;;;;;;;;;;7349615;19;20133;-71
2022/11/06 09:02:24;;;;;;;0.30;0.30;;;;;;;;;;7374949;19;20146;-72
2022/11/06 09:04:49;;;;;;;0.30;0.30;;;;;;;;;;7380644;19;20607;-70
2022/11/06 09:07:15;;;;;;;0.87;0.87;;;;;;;;;;7373891;19;20585;-70
2022/11/06 09:09:40;;;;;;;0.30;0.30;;;;;;;;;;7371008;19;20109;-70
2022/11/06 09:12:05;;;;;;;0.97;0.97;;;;;;;;;;7366431;19;20600;-71
2022/11/06 09:14:32;;;;;;;1.07;1.07;;;;;;;;;;7384635;19;20611;-72
2022/11/06 09:16:58;;;;;;;0.63;0.63;;;;;;;;;;7378395;19;20124;-70
2022/11/06 09:19:23;;;;;;;1.07;0.90;;;;;;;;;;7376685;19;20101;-72
2022/11/06 09:21:49;;;;;;;0.60;0.60;;;;;;;;;;7374515;19;20829;-70
2022/11/06 09:24:14;;;;;;;1.10;1.03;;;;;;;;;;7378153;19;20615;-71
2022/11/06 09:26:39;;;;;;;0.30;0.30;;;;;;;;;;7379394;19;20132;-70
2022/11/06 09:29:04;;;;;;;1.60;0.93;;;;;;;;;;7381135;19;20165;-70
2022/11/06 09:31:30;;;;;;;0.70;0.70;;;;;;;;;;7382146;19;20109;-72
2022/11/06 09:33:55;;;;;;;0.40;0.40;;;;;;;;;;7382789;19;20643;-70
2022/11/06 09:36:21;;;;;;;0.50;0.50;;;;;;;;;;7384090;19;20148;-70
2022/11/06 09:38:46;;;;;;;0.30;0.30;;;;;;;;;;7384976;19;20161;-72
2022/11/06 09:41:29;;;;;;;0.90;0.90;;;;;;;;;;7378391;19;20108;-68
2022/11/06 09:44:16;;;;;;;0.30;0.30;;;;;;;;;;7369943;19;20128;-71
2022/11/06 09:46:44;;;;;;;0.50;0.50;;;;;;;;;;7370203;19;20801;-68
2022/11/06 09:49:21;;;;;;;0.50;0.50;;;;;;;;;;7377424;19;20105;-71
2022/11/06 09:52:24;;;;;;;0.30;0.30;;;;;;;;;;7365659;19;20132;-69
2022/11/06 09:54:53;;;;;;;0.40;0.40;;;;;;;;;;7373451;19;20127;-68
2022/11/06 09:57:20;;;;;;;0.60;0.60;;;;;;;;;;7380278;19;20101;-68
2022/11/06 09:59:46;;;;;;;0.87;0.87;;;;;;;;;;7383869;19;20845;-72
2022/11/06 10:02:20;;;;;;;0.20;0.20;;;;;;;;;;7381717;19;20109;-69
2022/11/06 10:04:54;;;;;;;0.70;0.70;;;;;;;;;;7382788;19;20891;-68
2022/11/06 10:07:35;;;;;;;0.50;0.50;;;;;;;;;;7385775;19;20112;-68
2022/11/06 10:10:03;;;;;;;1.17;1.13;;;;;;;;;;7386854;19;20128;-69
2022/11/06 10:12:38;;;;;;;0.20;0.20;;;;;;;;;;7381906;19;20113;-71
2022/11/06 10:15:21;;;;;;;0.63;0.50;;;;;;;;;;7383746;19;20168;-69
2022/11/06 10:18:31;;;;;;;0.57;0.57;;;;;;;;;;7383468;19;20105;-71
2022/11/06 10:21:06;;;;;;;0.40;0.40;;;;;;;;;;7380371;19;20559;-68
2022/11/06 10:23:42;;;;;;;0.57;0.57;;;;;;;;;;7385825;19;20108;-69
2022/11/06 10:26:14;;;;;;;0.60;0.60;;;;;;;;;;7367096;19;20121;-69
2022/11/06 10:28:48;;;;;;;1.13;0.90;;;;;;;;;;7368410;19;20105;-71
2022/11/06 10:31:37;;;;;;;0.30;0.30;;;;;;;;;;7375266;19;20482;-71
2022/11/06 10:34:20;;;;;;;0.20;0.20;;;;;;;;;;7368998;19;20113;-69
2022/11/06 10:37:09;;;;;;;0.20;0.20;;;;;;;;;;7378882;19;20129;-69
2022/11/06 10:39:35;;;;;;;0.20;0.20;;;;;;;;;;7374288;19;20105;-68
2022/11/06 10:44:35;;;;;;;0.20;0.20;;;;;;;;;;7369139;19;20125;-69
2022/11/06 10:47:15;;;;;;;0.20;0.20;;;;;;;;;;7368056;19;20129;-68
2022/11/06 10:49:45;;;;;;;0.30;0.30;;;;;;;;;;7366409;19;20121;-68
2022/11/06 10:52:42;;;;;;;0.30;0.30;;;;;;;;;;7371439;19;20129;-67
2022/11/06 10:55:45;;;;;;;0.30;0.30;;;;;;;;;;7371090;19;20169;-69
2022/11/06 10:58:26;;;;;;;0.30;0.30;;;;;;;;;;7372451;19;20112;-68
2022/11/06 11:00:53;;;;;;;0.30;0.30;;;;;;;;;;7372950;19;20141;-67
2022/11/06 11:03:28;;;;;;;0.20;0.20;;;;;;;;;;7380845;19;20132;-68
2022/11/06 11:05:54;;;;;;;0.20;0.20;;;;;;;;;;7365229;19;20132;-68
2022/11/06 11:08:45;;;;;;;0.20;0.20;;;;;;;;;;7371222;19;20121;-67
2022/11/06 11:11:13;;;;;;;0.20;0.20;;;;;;;;;;7371084;19;20113;-67
2022/11/06 11:13:49;;;;;;;0.30;0.30;;;;;;;;;;7365912;19;20137;-69
2022/11/06 11:16:21;;;;;;;0.20;0.20;;;;;;;;;;7372269;19;20132;-70
2022/11/06 11:18:47;;;;;;;0.30;0.30;;;;;;;;;;7367575;19;20122;-69
2022/11/06 11:21:22;;;;;;;0.20;0.20;;;;;;;;;;7364618;19;20109;-70
2022/11/06 11:23:59;;;;;;;0.20;0.20;;;;;;;;;;7369358;19;20117;-70
2022/11/06 11:26:29;;;;;;;0.30;0.30;;;;;;;;;;7370154;19;20611;-70
2022/11/06 11:28:56;;;;;;;0.20;0.20;;;;;;;;;;7362244;19;20128;-70
2022/11/06 11:31:30;;;;;;;0.27;0.27;;;;;;;;;;7372673;19;20117;-70
2022/11/06 11:33:57;;;;;;;0.20;0.20;;;;;;;;;;7367151;19;20557;-70
2022/11/06 11:36:23;;;;;;;0.40;0.40;;;;;;;;;;7359307;19;20228;-69
2022/11/06 11:38:48;;;;;;;0.83;0.83;;;;;;;;;;7367200;19;20131;-70
2022/11/06 11:41:19;;;;;;;0.40;0.40;;;;;;;;;;7375045;19;20109;-70
2022/11/06 11:44:10;;;;;;;0.30;0.30;;;;;;;;;;7380907;19;20638;-69
2022/11/06 11:46:51;;;;;;;0.20;0.20;;;;;;;;;;7364005;19;20599;-70
2022/11/06 11:49:31;;;;;;;0.20;0.20;;;;;;;;;;7367108;19;20172;-70
2022/11/06 11:51:58;;;;;;;0.30;0.30;;;;;;;;;;7362956;19;20125;-70
2022/11/06 11:54:25;;;;;;;0.30;0.30;;;;;;;;;;7367937;19;20149;-71
2022/11/06 11:56:54;;;;;;;0.30;0.30;;;;;;;;;;7365780;19;20129;-68
2022/11/06 11:59:25;;;;;;;0.67;0.67;;;;;;;;;;7378386;19;20606;-70
2022/11/06 12:01:51;;;;;;;0.30;0.30;;;;;;;;;;7377065;19;20523;-70
2022/11/06 12:04:24;;;;;;;0.20;0.20;;;;;;;;;;7371241;19;20156;-70
2022/11/06 12:07:01;;;;;;;0.30;0.30;;;;;;;;;;7383755;19;20146;-70
2022/11/06 12:09:28;;;;;;;0.30;0.30;;;;;;;;;;7381076;19;20545;-70
2022/11/06 12:11:55;;;;;;;1.00;1.00;;;;;;;;;;7385390;19;20605;-70
2022/11/06 12:14:20;;;;;;;0.23;0.23;;;;;;;;;;7391035;19;20150;-70
2022/11/06 12:16:48;;;;;;;0.40;0.40;;;;;;;;;;7388373;19;20156;-69
2022/11/06 12:19:14;;;;;;;0.40;0.40;;;;;;;;;;7390487;19;20121;-69
2022/11/06 12:21:40;;;;;;;1.07;1.07;;;;;;;;;;7390252;19;20186;-69
2022/11/06 12:24:13;;;;;;;0.30;0.30;;;;;;;;;;7391332;19;20110;-68
2022/11/06 12:26:45;;;;;;;0.20;0.20;;;;;;;;;;7390347;19;20193;-70
2022/11/06 12:29:14;;;;;;;0.30;0.30;;;;;;;;;;7391084;19;20129;-70
2022/11/06 12:31:44;;;;;;;0.30;0.30;;;;;;;;;;7389878;19;20173;-69
2022/11/06 12:34:18;;;;;;;0.30;0.30;;;;;;;;;;7390574;19;20106;-70
2022/11/06 12:37:00;;;;;;;0.20;0.20;;;;;;;;;;7388217;19;20578;-69
2022/11/06 12:39:28;;;;;;;0.37;0.37;;;;;;;;;;7389521;19;20102;-70
2022/11/06 12:41:55;;;;;;;0.30;0.30;;;;;;;;;;7389109;19;20152;-70
2022/11/06 12:44:20;;;;;;;0.30;0.30;;;;;;;;;;7390646;19;20113;-69
2022/11/06 12:46:51;;;;;;;0.30;0.30;;;;;;;;;;7389141;19;20600;-70
2022/11/06 12:49:47;;;;;;;0.30;0.30;;;;;;;;;;7389771;19;20113;-70
2022/11/06 12:52:20;;;;;;;0.52;0.52;;;;;;;;;;7389329;19;20137;-70
2022/11/06 12:54:56;;;;;;;0.30;0.30;;;;;;;;;;7391375;19;20137;-70
2022/11/06 12:57:30;;;;;;;0.60;0.60;;;;;;;;;;7389871;19;20119;-70
2022/11/06 13:00:05;;;;;;;0.30;0.30;;;;;;;;;;7388584;19;20196;-70
2022/11/06 13:02:54;;;;;;;0.30;0.30;;;;;;;;;;7390647;19;20586;-70
2022/11/06 13:05:28;;;;;;;0.20;0.20;;;;;;;;;;7388480;19;20121;-70
2022/11/06 13:08:15;;;;;;;0.30;0.30;;;;;;;;;;7391010;19;20483;-69
2022/11/06 13:10:55;;;;;;;0.30;0.30;;;;;;;;;;7390421;19;20127;-70
2022/11/06 13:13:29;;;;;;;0.50;0.50;;;;;;;;;;7388371;19;20124;-70
2022/11/06 13:16:14;;;;;;;0.20;0.20;;;;;;;;;;7389682;19;20129;-70
2022/11/06 13:18:53;;;;;;;0.20;0.20;;;;;;;;;;7389115;19;20130;-70
2022/11/06 13:21:28;;;;;;;0.50;0.50;;;;;;;;;;7388263;19;20154;-69
2022/11/06 13:24:10;;;;;;;0.20;0.20;;;;;;;;;;7388913;19;20466;-69
2022/11/06 13:26:42;;;;;;;0.20;0.20;;;;;;;;;;7388107;19;20189;-69
2022/11/06 13:29:11;;;;;;;0.20;0.20;;;;;;;;;;7388872;19;20189;-68
2022/11/06 13:31:51;;;;;;;0.30;0.30;;;;;;;;;;7387283;19;20109;-69
2022/11/06 13:34:22;;;;;;;0.30;0.30;;;;;;;;;;7390072;19;20117;-69
2022/11/06 13:36:48;;;;;;;0.20;0.20;;;;;;;;;;7386425;19;20125;-69
2022/11/06 13:39:23;;;;;;;0.30;0.30;;;;;;;;;;7387925;19;20101;-68
2022/11/06 13:41:48;;;;;;;0.30;0.30;;;;;;;;;;7386865;19;20554;-69
2022/11/06 13:44:16;;;;;;;0.93;0.93;;;;;;;;;;7388162;19;20125;-69
2022/11/06 13:46:57;;;;;;;0.30;0.30;;;;;;;;;;7387312;19;20121;-69
2022/11/06 13:49:45;;;;;;;0.27;0.27;;;;;;;;;;7374043;19;20203;-68
2022/11/06 13:53:12;;;;;;;0.93;0.93;;;;;;;;;;7377780;19;20106;-69
2022/11/06 13:55:44;;;;;;;0.20;0.20;;;;;;;;;;7382164;19;20152;-69
2022/11/06 13:58:20;;;;;;;0.20;0.20;;;;;;;;;;7382644;19;20112;-70
2022/11/06 14:00:54;;;;;;;0.20;0.20;;;;;;;;;;7382619;19;20453;-70
2022/11/06 14:03:42;;;;;;;0.67;0.67;;;;;;;;;;7376916;19;20140;-68
2022/11/06 14:06:12;;;;;;;0.20;0.20;;;;;;;;;;7370243;19;20614;-68
2022/11/06 14:08:42;;;;;;;0.20;0.20;;;;;;;;;;7379348;19;20579;-69
2022/11/06 14:11:13;;;;;;;0.20;0.20;;;;;;;;;;7374931;19;20556;-69
2022/11/06 14:13:39;;;;;;;0.30;0.30;;;;;;;;;;7377495;19;20121;-69
2022/11/06 14:16:31;;;;;;;0.20;0.20;;;;;;;;;;7381734;19;20158;-69
2022/11/06 14:19:01;;;;;;;0.20;0.20;;;;;;;;;;7372271;19;20116;-68
2022/11/06 14:21:35;;;;;;;0.20;0.20;;;;;;;;;;7376055;19;20121;-69
2022/11/06 14:24:49;;;;;;;0.30;0.30;;;;;;;;;;7373790;19;20119;-69
2022/11/06 14:27:20;;;;;;;0.20;0.20;;;;;;;;;;7375675;19;20253;-69
2022/11/06 14:30:05;;;;;;;0.20;0.20;;;;;;;;;;7376239;19;20173;-70
2022/11/06 14:32:39;;;;;;;0.30;0.30;;;;;;;;;;7376112;19;20141;-70
2022/11/06 14:35:26;;;;;;;0.30;0.30;;;;;;;;;;7369915;19;20117;-69
2022/11/06 14:38:08;;;;;;;0.30;0.30;;;;;;;;;;7377444;19;20109;-70
2022/11/06 14:40:34;;;;;;;0.30;0.30;;;;;;;;;;7370017;19;20105;-69
2022/11/06 14:43:00;;;;;;;0.30;0.30;;;;;;;;;;7371774;19;20101;-69
2022/11/06 14:45:26;;;;;;;0.20;0.20;;;;;;;;;;7375298;19;20159;-67
2022/11/06 14:47:55;;;;;;;1.13;0.97;;;;;;;;;;7369509;19;20517;-69
2022/11/06 14:50:40;;;;;;;0.20;0.20;;;;;;;;;;7372137;19;20109;-69
2022/11/06 14:53:28;;;;;;;0.20;0.20;;;;;;;;;;7373878;19;20113;-68
2022/11/06 14:56:03;;;;;;;0.20;0.20;;;;;;;;;;7371870;19;20144;-69
2022/11/06 14:58:32;;;;;;;0.87;0.87;;;;;;;;;;7368674;19;20113;-69
2022/11/06 15:01:01;;;;;;;0.20;0.20;;;;;;;;;;7368933;19;20172;-69
2022/11/06 15:03:41;;;;;;;0.20;0.20;;;;;;;;;;7372008;19;20751;-68
2022/11/06 15:06:18;;;;;;;0.20;0.20;;;;;;;;;;7367556;19;20125;-68
2022/11/06 15:08:43;;;;;;;0.30;0.30;;;;;;;;;;7369168;19;20136;-69
2022/11/06 15:11:09;;;;;;;1.50;0.70;;;;;;;;;;7360546;19;20125;-69
2022/11/06 15:13:34;;;;;;;0.20;0.20;;;;;;;;;;7366658;19;20121;-69
2022/11/06 15:16:05;;;;;;;0.30;0.30;;;;;;;;;;7367887;19;20134;-69
2022/11/06 15:18:34;;;;;;;0.20;0.20;;;;;;;;;;7366323;19;20121;-68
2022/11/06 15:21:02;;;;;;;0.20;0.20;;;;;;;;;;7367481;19;20226;-69